Des Lacs, ND

6:26 PM CST on November 23, 2014 (GMT -0600)
Edgeview Estates | Change Station
CLOSE
Current Station
Personal Weather Station
Location: Minot, ND
Elevation: 1752 ft
Nearby Weather Stations
Active Advisory: Wind Advisory Active Notice: Public Information Statement

Elev 1752 ft 48.21 °N, 101.33 °W | Updated 4 seconds ago

Overcast
Overcast
17.3 °F
Feels Like 8 °F
N
7.0
Wind Variable Wind from NNE
Gusts 19.0 mph

Today
High -- | Low -- °F
--% Chance of Precip.
Yesterday
High -- | Low -- °F
Precip. -- in
8:05 AM 4:59 PM
Waxing Crescent, 3% visible
Pressure 29.69 in
Visibility 7.0 miles
Clouds Mostly Cloudy 2100 ft
Overcast 3800 ft
Windchill 8 °F
Dew Point 13 °F
Humidity 82%
Rainfall 0.00 in
Snow Depth Not available.
UV 0 out of 12
Pollen .10 out of 12
Air Quality Not available.
Flu Activity Not available.
SPECI KMOT 240011Z 30017G26KT 7SM -SN BKN021 OVC038 M08/M12 A2969 RMK AO2 PK WND 30028/0001 P0000 T10831122

More Conditions Fewer Conditions

Pressure 29.69 in
Visibility 7.0 miles
Clouds Mostly Cloudy 2100 ft
Overcast 3800 ft
Windchill 8 °F
Dew Point 13 °F
Humidity 82%
Rainfall 0.00 in
Snow Depth Not available.
UV 0 out of 12
Pollen .10 out of 12
Air Quality Not available.
Flu Activity Not available.
SPECI KMOT 240011Z 30017G26KT 7SM -SN BKN021 OVC038 M08/M12 A2969 RMK AO2 PK WND 30028/0001 P0000 T10831122

More Conditions Fewer Conditions

10-Day Weather Forecast

Almanac

Astronomy

Nov. 23, 2014 Rise Set
Actual Time
Civil Twilight
Nautical Twilight
Astronomical Twilight
Moon
Length of Visible Light
Length of Day
Tomorrow will be .
, % of the Moon is Illuminated

Today's Extremes

State Highs State Lows

Community

WunderPhotos

Upload Photos

1,773,219 photos uploaded!

WunderBlogs® & News

Nearby

Air Quality

  Air Quality AQ Index Pollutant
Not available.

Snow Depth

Station Depth Elevation

Earthquake Activity

City Distance Mag. Time & Date
Minimum magnitude displayed is 2.5.

Coastal Water Temperatures

Place Temperature

Nearby Weather Stations